sensor_id;sensor_type;location;lat;lon;timestamp;P1;durP1;ratioP1;P2;durP2;ratioP2
29934;SDS011;19905;53.370;-6.314;2022-11-21T00:01:45;20.48;;;4.68;;
29934;SDS011;19905;53.370;-6.314;2022-11-21T00:04:14;24.85;;;4.45;;
29934;SDS011;19905;53.370;-6.314;2022-11-21T00:06:45;24.83;;;3.83;;
29934;SDS011;19905;53.370;-6.314;2022-11-21T00:09:14;31.98;;;4.38;;
29934;SDS011;19905;53.370;-6.314;2022-11-21T00:11:42;26.83;;;4.57;;
29934;SDS011;19905;53.370;-6.314;2022-11-21T00:14:11;28.77;;;4.10;;
29934;SDS011;19905;53.370;-6.314;2022-11-21T00:16:39;23.88;;;3.85;;
29934;SDS011;19905;53.370;-6.314;2022-11-21T00:19:09;28.08;;;4.50;;
29934;SDS011;19905;53.370;-6.314;2022-11-21T00:21:38;29.75;;;3.92;;
29934;SDS011;19905;53.370;-6.314;2022-11-21T00:24:09;22.20;;;3.30;;
29934;SDS011;19905;53.370;-6.314;2022-11-21T00:26:37;27.23;;;3.72;;
29934;SDS011;19905;53.370;-6.314;2022-11-21T00:29:06;28.65;;;4.28;;
29934;SDS011;19905;53.370;-6.314;2022-11-21T00:31:35;28.73;;;3.88;;
29934;SDS011;19905;53.370;-6.314;2022-11-21T00:34:03;26.95;;;4.35;;
29934;SDS011;19905;53.370;-6.314;2022-11-21T00:36:33;26.45;;;3.80;;
29934;SDS011;19905;53.370;-6.314;2022-11-21T00:39:02;28.00;;;3.92;;
29934;SDS011;19905;53.370;-6.314;2022-11-21T00:41:31;25.83;;;3.95;;
29934;SDS011;19905;53.370;-6.314;2022-11-21T00:43:59;30.25;;;4.03;;
29934;SDS011;19905;53.370;-6.314;2022-11-21T00:46:28;34.42;;;4.72;;
29934;SDS011;19905;53.370;-6.314;2022-11-21T00:48:56;33.22;;;4.30;;
29934;SDS011;19905;53.370;-6.314;2022-11-21T00:51:25;20.08;;;3.83;;
29934;SDS011;19905;53.370;-6.314;2022-11-21T00:53:55;25.35;;;3.85;;
29934;SDS011;19905;53.370;-6.314;2022-11-21T00:56:24;25.85;;;3.58;;
29934;SDS011;19905;53.370;-6.314;2022-11-21T00:58:52;24.38;;;3.50;;
29934;SDS011;19905;53.370;-6.314;2022-11-21T01:01:21;21.25;;;3.75;;
29934;SDS011;19905;53.370;-6.314;2022-11-21T01:03:50;20.60;;;3.28;;
29934;SDS011;19905;53.370;-6.314;2022-11-21T01:06:18;22.13;;;3.72;;
29934;SDS011;19905;53.370;-6.314;2022-11-21T01:08:47;29.75;;;4.03;;
29934;SDS011;19905;53.370;-6.314;2022-11-21T01:11:17;26.38;;;3.92;;
29934;SDS011;19905;53.370;-6.314;2022-11-21T01:13:48;28.48;;;4.10;;
29934;SDS011;19905;53.370;-6.314;2022-11-21T01:16:17;20.80;;;3.97;;
29934;SDS011;19905;53.370;-6.314;2022-11-21T01:18:47;26.52;;;4.47;;
29934;SDS011;19905;53.370;-6.314;2022-11-21T01:21:18;33.63;;;7.07;;
29934;SDS011;19905;53.370;-6.314;2022-11-21T01:23:48;33.40;;;7.18;;
29934;SDS011;19905;53.370;-6.314;2022-11-21T01:26:20;33.92;;;7.30;;
29934;SDS011;19905;53.370;-6.314;2022-11-21T01:28:50;30.70;;;5.70;;
29934;SDS011;19905;53.370;-6.314;2022-11-21T01:31:19;36.83;;;5.85;;
29934;SDS011;19905;53.370;-6.314;2022-11-21T01:33:49;30.83;;;4.93;;
29934;SDS011;19905;53.370;-6.314;2022-11-21T01:36:19;27.73;;;3.95;;
29934;SDS011;19905;53.370;-6.314;2022-11-21T01:38:51;26.98;;;4.35;;
29934;SDS011;19905;53.370;-6.314;2022-11-21T01:41:23;33.72;;;4.60;;
29934;SDS011;19905;53.370;-6.314;2022-11-21T01:43:55;25.27;;;4.20;;
29934;SDS011;19905;53.370;-6.314;2022-11-21T01:46:25;31.95;;;4.60;;
29934;SDS011;19905;53.370;-6.314;2022-11-21T01:48:54;27.42;;;4.15;;
29934;SDS011;19905;53.370;-6.314;2022-11-21T01:51:28;31.67;;;4.03;;
29934;SDS011;19905;53.370;-6.314;2022-11-21T01:54:01;22.90;;;3.40;;
29934;SDS011;19905;53.370;-6.314;2022-11-21T01:56:37;27.55;;;3.50;;
29934;SDS011;19905;53.370;-6.314;2022-11-21T01:59:12;23.63;;;3.47;;
29934;SDS011;19905;53.370;-6.314;2022-11-21T02:01:45;19.02;;;3.75;;
29934;SDS011;19905;53.370;-6.314;2022-11-21T02:04:17;19.35;;;3.50;;
29934;SDS011;19905;53.370;-6.314;2022-11-21T02:06:47;20.13;;;3.55;;
29934;SDS011;19905;53.370;-6.314;2022-11-21T02:09:16;22.42;;;3.30;;
29934;SDS011;19905;53.370;-6.314;2022-11-21T02:11:48;21.35;;;3.05;;
29934;SDS011;19905;53.370;-6.314;2022-11-21T02:14:19;24.60;;;3.80;;
29934;SDS011;19905;53.370;-6.314;2022-11-21T02:16:47;21.65;;;3.63;;
29934;SDS011;19905;53.370;-6.314;2022-11-21T02:19:18;19.08;;;3.13;;
29934;SDS011;19905;53.370;-6.314;2022-11-21T02:21:56;19.45;;;3.50;;
29934;SDS011;19905;53.370;-6.314;2022-11-21T02:24:32;20.90;;;3.50;;
29934;SDS011;19905;53.370;-6.314;2022-11-21T02:27:08;21.52;;;3.50;;
29934;SDS011;19905;53.370;-6.314;2022-11-21T02:29:37;24.48;;;4.03;;
29934;SDS011;19905;53.370;-6.314;2022-11-21T02:32:07;20.23;;;2.90;;
29934;SDS011;19905;53.370;-6.314;2022-11-21T02:34:35;17.10;;;3.20;;
29934;SDS011;19905;53.370;-6.314;2022-11-21T02:37:04;21.40;;;3.72;;
29934;SDS011;19905;53.370;-6.314;2022-11-21T02:39:34;28.42;;;4.07;;
29934;SDS011;19905;53.370;-6.314;2022-11-21T02:42:06;23.92;;;3.83;;
29934;SDS011;19905;53.370;-6.314;2022-11-21T02:44:42;28.45;;;3.70;;
29934;SDS011;19905;53.370;-6.314;2022-11-21T02:47:19;25.17;;;3.92;;
29934;SDS011;19905;53.370;-6.314;2022-11-21T02:49:52;25.40;;;4.03;;
29934;SDS011;19905;53.370;-6.314;2022-11-21T02:52:24;27.67;;;4.28;;
29934;SDS011;19905;53.370;-6.314;2022-11-21T02:54:53;34.63;;;5.05;;
29934;SDS011;19905;53.370;-6.314;2022-11-21T02:57:23;30.85;;;4.20;;
29934;SDS011;19905;53.370;-6.314;2022-11-21T02:59:52;23.13;;;4.65;;
29934;SDS011;19905;53.370;-6.314;2022-11-21T03:02:21;31.48;;;4.47;;
29934;SDS011;19905;53.370;-6.314;2022-11-21T03:04:49;27.38;;;4.72;;
29934;SDS011;19905;53.370;-6.314;2022-11-21T03:07:18;35.22;;;4.90;;
29934;SDS011;19905;53.370;-6.314;2022-11-21T03:09:47;31.15;;;4.75;;
29934;SDS011;19905;53.370;-6.314;2022-11-21T03:12:16;26.05;;;4.22;;
29934;SDS011;19905;53.370;-6.314;2022-11-21T03:14:46;29.17;;;4.50;;
29934;SDS011;19905;53.370;-6.314;2022-11-21T03:17:14;33.45;;;4.40;;
29934;SDS011;19905;53.370;-6.314;2022-11-21T03:19:43;38.50;;;4.97;;
29934;SDS011;19905;53.370;-6.314;2022-11-21T03:22:12;36.10;;;5.22;;
29934;SDS011;19905;53.370;-6.314;2022-11-21T03:24:42;39.70;;;4.82;;
29934;SDS011;19905;53.370;-6.314;2022-11-21T03:27:12;37.85;;;4.82;;
29934;SDS011;19905;53.370;-6.314;2022-11-21T03:29:40;35.95;;;5.32;;
29934;SDS011;19905;53.370;-6.314;2022-11-21T03:32:11;39.60;;;5.28;;
29934;SDS011;19905;53.370;-6.314;2022-11-21T03:34:39;47.40;;;5.63;;
29934;SDS011;19905;53.370;-6.314;2022-11-21T03:37:08;40.80;;;5.57;;
29934;SDS011;19905;53.370;-6.314;2022-11-21T03:39:37;42.63;;;5.20;;
29934;SDS011;19905;53.370;-6.314;2022-11-21T03:42:06;49.15;;;5.72;;
29934;SDS011;19905;53.370;-6.314;2022-11-21T03:44:34;41.83;;;5.10;;
29934;SDS011;19905;53.370;-6.314;2022-11-21T03:47:04;40.85;;;5.82;;
29934;SDS011;19905;53.370;-6.314;2022-11-21T03:49:34;39.33;;;5.25;;
29934;SDS011;19905;53.370;-6.314;2022-11-21T03:52:03;41.28;;;5.22;;
29934;SDS011;19905;53.370;-6.314;2022-11-21T03:54:31;44.88;;;5.72;;
29934;SDS011;19905;53.370;-6.314;2022-11-21T03:57:00;42.35;;;5.68;;
29934;SDS011;19905;53.370;-6.314;2022-11-21T03:59:28;44.20;;;5.10;;
29934;SDS011;19905;53.370;-6.314;2022-11-21T04:01:59;43.08;;;5.13;;
29934;SDS011;19905;53.370;-6.314;2022-11-21T04:04:27;40.85;;;5.93;;
29934;SDS011;19905;53.370;-6.314;2022-11-21T04:06:58;39.58;;;5.45;;
29934;SDS011;19905;53.370;-6.314;2022-11-21T04:09:26;43.85;;;5.80;;
29934;SDS011;19905;53.370;-6.314;2022-11-21T04:11:55;41.13;;;5.88;;
29934;SDS011;19905;53.370;-6.314;2022-11-21T04:14:24;41.38;;;5.32;;
29934;SDS011;19905;53.370;-6.314;2022-11-21T04:16:53;39.25;;;5.85;;
29934;SDS011;19905;53.370;-6.314;2022-11-21T04:19:21;40.95;;;5.45;;
29934;SDS011;19905;53.370;-6.314;2022-11-21T04:21:50;52.42;;;5.97;;
29934;SDS011;19905;53.370;-6.314;2022-11-21T04:24:20;37.30;;;5.10;;
29934;SDS011;19905;53.370;-6.314;2022-11-21T04:26:48;57.85;;;6.07;;
29934;SDS011;19905;53.370;-6.314;2022-11-21T04:29:17;49.75;;;5.78;;
29934;SDS011;19905;53.370;-6.314;2022-11-21T04:31:45;46.17;;;5.70;;
29934;SDS011;19905;53.370;-6.314;2022-11-21T04:34:14;44.45;;;6.05;;
29934;SDS011;19905;53.370;-6.314;2022-11-21T04:36:43;38.63;;;5.30;;
29934;SDS011;19905;53.370;-6.314;2022-11-21T04:39:11;46.10;;;4.97;;
29934;SDS011;19905;53.370;-6.314;2022-11-21T04:41:41;41.28;;;5.40;;
29934;SDS011;19905;53.370;-6.314;2022-11-21T04:44:10;49.22;;;5.97;;
29934;SDS011;19905;53.370;-6.314;2022-11-21T04:46:38;44.78;;;5.55;;
29934;SDS011;19905;53.370;-6.314;2022-11-21T04:49:07;52.15;;;5.82;;
29934;SDS011;19905;53.370;-6.314;2022-11-21T04:51:35;49.50;;;5.90;;
29934;SDS011;19905;53.370;-6.314;2022-11-21T04:54:05;52.92;;;6.22;;
29934;SDS011;19905;53.370;-6.314;2022-11-21T04:56:33;42.55;;;5.63;;
29934;SDS011;19905;53.370;-6.314;2022-11-21T04:59:05;40.15;;;5.18;;
29934;SDS011;19905;53.370;-6.314;2022-11-21T05:01:34;41.55;;;5.15;;
29934;SDS011;19905;53.370;-6.314;2022-11-21T05:04:04;38.97;;;4.88;;
29934;SDS011;19905;53.370;-6.314;2022-11-21T05:06:33;38.08;;;4.72;;
29934;SDS011;19905;53.370;-6.314;2022-11-21T05:09:02;38.78;;;5.57;;
29934;SDS011;19905;53.370;-6.314;2022-11-21T05:11:30;39.75;;;4.80;;
29934;SDS011;19905;53.370;-6.314;2022-11-21T05:14:18;35.35;;;4.90;;
29934;SDS011;19905;53.370;-6.314;2022-11-21T05:16:46;19.58;;;3.03;;
29934;SDS011;19905;53.370;-6.314;2022-11-21T05:19:15;27.58;;;3.83;;
29934;SDS011;19905;53.370;-6.314;2022-11-21T05:21:43;18.00;;;3.15;;
29934;SDS011;19905;53.370;-6.314;2022-11-21T05:24:12;17.48;;;2.80;;
29934;SDS011;19905;53.370;-6.314;2022-11-21T05:26:41;15.77;;;1.92;;
29934;SDS011;19905;53.370;-6.314;2022-11-21T05:29:10;16.92;;;3.42;;
29934;SDS011;19905;53.370;-6.314;2022-11-21T05:31:39;21.98;;;3.25;;
29934;SDS011;19905;53.370;-6.314;2022-11-21T05:34:08;21.02;;;2.95;;
29934;SDS011;19905;53.370;-6.314;2022-11-21T05:36:37;21.15;;;3.20;;
29934;SDS011;19905;53.370;-6.314;2022-11-21T05:39:05;17.38;;;2.70;;
29934;SDS011;19905;53.370;-6.314;2022-11-21T05:41:34;15.95;;;3.03;;
29934;SDS011;19905;53.370;-6.314;2022-11-21T05:44:03;24.98;;;3.88;;
29934;SDS011;19905;53.370;-6.314;2022-11-21T05:46:30;33.90;;;4.35;;
29934;SDS011;19905;53.370;-6.314;2022-11-21T05:49:01;27.35;;;3.80;;
29934;SDS011;19905;53.370;-6.314;2022-11-21T05:51:30;30.75;;;4.05;;
29934;SDS011;19905;53.370;-6.314;2022-11-21T05:53:58;39.17;;;4.95;;
29934;SDS011;19905;53.370;-6.314;2022-11-21T05:56:27;28.13;;;4.22;;
29934;SDS011;19905;53.370;-6.314;2022-11-21T05:58:55;31.67;;;4.13;;
29934;SDS011;19905;53.370;-6.314;2022-11-21T06:01:24;35.63;;;4.63;;
29934;SDS011;19905;53.370;-6.314;2022-11-21T06:04:08;36.78;;;4.45;;
29934;SDS011;19905;53.370;-6.314;2022-11-21T06:06:37;29.52;;;3.90;;
29934;SDS011;19905;53.370;-6.314;2022-11-21T06:09:07;35.20;;;4.28;;
29934;SDS011;19905;53.370;-6.314;2022-11-21T06:11:35;41.80;;;4.93;;
29934;SDS011;19905;53.370;-6.314;2022-11-21T06:14:04;33.67;;;4.10;;
29934;SDS011;19905;53.370;-6.314;2022-11-21T06:16:33;29.00;;;3.70;;
29934;SDS011;19905;53.370;-6.314;2022-11-21T06:19:02;26.10;;;3.35;;
29934;SDS011;19905;53.370;-6.314;2022-11-21T06:21:32;30.67;;;3.95;;
29934;SDS011;19905;53.370;-6.314;2022-11-21T06:24:03;19.92;;;3.47;;
29934;SDS011;19905;53.370;-6.314;2022-11-21T06:26:32;23.67;;;3.10;;
29934;SDS011;19905;53.370;-6.314;2022-11-21T06:29:03;24.92;;;2.95;;
29934;SDS011;19905;53.370;-6.314;2022-11-21T06:31:32;21.20;;;3.17;;
29934;SDS011;19905;53.370;-6.314;2022-11-21T06:34:01;22.17;;;3.08;;
29934;SDS011;19905;53.370;-6.314;2022-11-21T06:36:29;22.77;;;3.25;;
29934;SDS011;19905;53.370;-6.314;2022-11-21T06:39:00;25.38;;;2.90;;
29934;SDS011;19905;53.370;-6.314;2022-11-21T06:41:28;17.90;;;2.65;;
29934;SDS011;19905;53.370;-6.314;2022-11-21T06:43:57;21.52;;;2.50;;
29934;SDS011;19905;53.370;-6.314;2022-11-21T06:46:27;16.65;;;2.78;;
29934;SDS011;19905;53.370;-6.314;2022-11-21T06:48:56;15.23;;;2.70;;
29934;SDS011;19905;53.370;-6.314;2022-11-21T06:51:25;25.17;;;3.25;;
29934;SDS011;19905;53.370;-6.314;2022-11-21T06:53:54;29.27;;;3.50;;
29934;SDS011;19905;53.370;-6.314;2022-11-21T06:56:26;24.38;;;3.35;;
29934;SDS011;19905;53.370;-6.314;2022-11-21T06:58:56;25.73;;;3.40;;
29934;SDS011;19905;53.370;-6.314;2022-11-21T07:01:25;27.05;;;4.03;;
29934;SDS011;19905;53.370;-6.314;2022-11-21T07:03:54;28.98;;;3.70;;
29934;SDS011;19905;53.370;-6.314;2022-11-21T07:06:23;35.65;;;4.20;;
29934;SDS011;19905;53.370;-6.314;2022-11-21T07:08:53;37.47;;;4.30;;
29934;SDS011;19905;53.370;-6.314;2022-11-21T07:11:43;31.63;;;3.40;;
29934;SDS011;19905;53.370;-6.314;2022-11-21T07:14:12;28.70;;;3.60;;
29934;SDS011;19905;53.370;-6.314;2022-11-21T07:16:40;32.45;;;3.92;;
29934;SDS011;19905;53.370;-6.314;2022-11-21T07:19:08;28.20;;;4.00;;
29934;SDS011;19905;53.370;-6.314;2022-11-21T07:21:37;32.70;;;4.35;;
29934;SDS011;19905;53.370;-6.314;2022-11-21T07:24:06;31.60;;;3.85;;
29934;SDS011;19905;53.370;-6.314;2022-11-21T07:26:34;29.02;;;3.25;;
29934;SDS011;19905;53.370;-6.314;2022-11-21T07:29:05;33.08;;;4.40;;
29934;SDS011;19905;53.370;-6.314;2022-11-21T07:31:34;30.70;;;3.92;;
29934;SDS011;19905;53.370;-6.314;2022-11-21T07:34:03;22.33;;;3.35;;
29934;SDS011;19905;53.370;-6.314;2022-11-21T07:36:32;23.42;;;3.70;;
29934;SDS011;19905;53.370;-6.314;2022-11-21T07:39:03;24.25;;;3.28;;
29934;SDS011;19905;53.370;-6.314;2022-11-21T07:41:33;24.70;;;3.08;;
29934;SDS011;19905;53.370;-6.314;2022-11-21T07:44:03;34.05;;;3.90;;
29934;SDS011;19905;53.370;-6.314;2022-11-21T07:46:35;24.08;;;3.83;;
29934;SDS011;19905;53.370;-6.314;2022-11-21T07:49:04;34.90;;;4.10;;
29934;SDS011;19905;53.370;-6.314;2022-11-21T07:51:35;37.75;;;4.10;;
29934;SDS011;19905;53.370;-6.314;2022-11-21T07:54:04;32.75;;;4.10;;
29934;SDS011;19905;53.370;-6.314;2022-11-21T07:56:33;34.70;;;4.10;;
29934;SDS011;19905;53.370;-6.314;2022-11-21T07:59:13;28.17;;;4.07;;
29934;SDS011;19905;53.370;-6.314;2022-11-21T08:01:54;34.22;;;4.43;;
29934;SDS011;19905;53.370;-6.314;2022-11-21T08:04:22;29.92;;;3.70;;
29934;SDS011;19905;53.370;-6.314;2022-11-21T08:06:51;34.45;;;4.57;;
29934;SDS011;19905;53.370;-6.314;2022-11-21T08:09:20;32.47;;;3.83;;
29934;SDS011;19905;53.370;-6.314;2022-11-21T08:11:49;31.80;;;4.07;;
29934;SDS011;19905;53.370;-6.314;2022-11-21T08:14:20;35.60;;;4.30;;
29934;SDS011;19905;53.370;-6.314;2022-11-21T08:16:50;36.10;;;4.05;;
29934;SDS011;19905;53.370;-6.314;2022-11-21T08:19:20;30.80;;;4.20;;
29934;SDS011;19905;53.370;-6.314;2022-11-21T08:21:51;33.40;;;4.80;;
29934;SDS011;19905;53.370;-6.314;2022-11-21T08:24:20;28.33;;;3.78;;
29934;SDS011;19905;53.370;-6.314;2022-11-21T08:26:49;29.55;;;3.90;;
29934;SDS011;19905;53.370;-6.314;2022-11-21T08:29:18;25.88;;;3.50;;
29934;SDS011;19905;53.370;-6.314;2022-11-21T08:31:49;35.58;;;4.60;;
29934;SDS011;19905;53.370;-6.314;2022-11-21T08:34:17;33.83;;;4.80;;
29934;SDS011;19905;53.370;-6.314;2022-11-21T08:36:46;32.65;;;4.00;;
29934;SDS011;19905;53.370;-6.314;2022-11-21T08:39:16;28.95;;;4.03;;
29934;SDS011;19905;53.370;-6.314;2022-11-21T08:41:46;28.95;;;4.28;;
29934;SDS011;19905;53.370;-6.314;2022-11-21T08:44:32;39.20;;;4.57;;
29934;SDS011;19905;53.370;-6.314;2022-11-21T08:47:01;27.90;;;3.88;;
29934;SDS011;19905;53.370;-6.314;2022-11-21T08:49:30;29.75;;;4.20;;
29934;SDS011;19905;53.370;-6.314;2022-11-21T08:52:00;34.83;;;3.83;;
29934;SDS011;19905;53.370;-6.314;2022-11-21T08:54:29;47.80;;;5.15;;
29934;SDS011;19905;53.370;-6.314;2022-11-21T08:56:58;39.55;;;5.40;;
29934;SDS011;19905;53.370;-6.314;2022-11-21T08:59:27;46.47;;;5.30;;
29934;SDS011;19905;53.370;-6.314;2022-11-21T09:01:58;41.35;;;4.47;;
29934;SDS011;19905;53.370;-6.314;2022-11-21T09:04:28;46.72;;;5.35;;
29934;SDS011;19905;53.370;-6.314;2022-11-21T09:06:57;39.40;;;4.93;;
29934;SDS011;19905;53.370;-6.314;2022-11-21T09:09:27;34.80;;;4.95;;
29934;SDS011;19905;53.370;-6.314;2022-11-21T09:11:56;38.67;;;4.72;;
29934;SDS011;19905;53.370;-6.314;2022-11-21T09:14:25;37.55;;;4.82;;
29934;SDS011;19905;53.370;-6.314;2022-11-21T09:17:13;42.90;;;5.10;;
29934;SDS011;19905;53.370;-6.314;2022-11-21T09:20:02;45.20;;;5.20;;
29934;SDS011;19905;53.370;-6.314;2022-11-21T09:22:37;40.63;;;4.38;;
29934;SDS011;19905;53.370;-6.314;2022-11-21T09:25:06;38.50;;;3.92;;
29934;SDS011;19905;53.370;-6.314;2022-11-21T09:27:38;33.95;;;4.38;;
29934;SDS011;19905;53.370;-6.314;2022-11-21T09:30:06;42.53;;;4.65;;
29934;SDS011;19905;53.370;-6.314;2022-11-21T09:32:37;38.53;;;4.65;;
29934;SDS011;19905;53.370;-6.314;2022-11-21T09:35:06;43.92;;;4.18;;
29934;SDS011;19905;53.370;-6.314;2022-11-21T09:37:35;36.45;;;4.10;;
29934;SDS011;19905;53.370;-6.314;2022-11-21T09:40:05;32.08;;;4.28;;
29934;SDS011;19905;53.370;-6.314;2022-11-21T09:42:48;27.95;;;4.03;;
29934;SDS011;19905;53.370;-6.314;2022-11-21T09:45:28;39.55;;;4.45;;
29934;SDS011;19905;53.370;-6.314;2022-11-21T09:48:03;32.83;;;4.13;;
29934;SDS011;19905;53.370;-6.314;2022-11-21T09:50:40;30.02;;;4.45;;
29934;SDS011;19905;53.370;-6.314;2022-11-21T09:53:21;33.40;;;3.63;;
29934;SDS011;19905;53.370;-6.314;2022-11-21T09:55:56;27.83;;;2.47;;
29934;SDS011;19905;53.370;-6.314;2022-11-21T09:58:34;11.88;;;1.48;;
29934;SDS011;19905;53.370;-6.314;2022-11-21T10:01:08;3.58;;;0.90;;
29934;SDS011;19905;53.370;-6.314;2022-11-21T10:03:43;3.85;;;1.10;;
29934;SDS011;19905;53.370;-6.314;2022-11-21T10:06:17;7.00;;;1.23;;
29934;SDS011;19905;53.370;-6.314;2022-11-21T10:08:54;2.50;;;1.08;;
29934;SDS011;19905;53.370;-6.314;2022-11-21T10:11:32;3.40;;;1.10;;
29934;SDS011;19905;53.370;-6.314;2022-11-21T10:14:37;7.28;;;1.10;;
29934;SDS011;19905;53.370;-6.314;2022-11-21T10:17:43;5.28;;;1.20;;
29934;SDS011;19905;53.370;-6.314;2022-11-21T10:20:30;2.50;;;1.00;;
29934;SDS011;19905;53.370;-6.314;2022-11-21T10:23:18;7.57;;;1.20;;
29934;SDS011;19905;53.370;-6.314;2022-11-21T10:26:13;5.50;;;1.10;;
29934;SDS011;19905;53.370;-6.314;2022-11-21T10:28:46;5.50;;;1.05;;
29934;SDS011;19905;53.370;-6.314;2022-11-21T10:31:19;4.75;;;1.00;;
29934;SDS011;19905;53.370;-6.314;2022-11-21T10:33:50;9.68;;;1.08;;
29934;SDS011;19905;53.370;-6.314;2022-11-21T10:36:28;7.43;;;1.40;;
29934;SDS011;19905;53.370;-6.314;2022-11-21T10:39:04;8.57;;;1.33;;
29934;SDS011;19905;53.370;-6.314;2022-11-21T10:41:44;4.97;;;1.10;;
29934;SDS011;19905;53.370;-6.314;2022-11-21T10:47:13;6.38;;;1.20;;
29934;SDS011;19905;53.370;-6.314;2022-11-21T10:49:56;10.00;;;1.70;;
29934;SDS011;19905;53.370;-6.314;2022-11-21T10:55:12;9.98;;;1.55;;
29934;SDS011;19905;53.370;-6.314;2022-11-21T10:57:55;11.68;;;1.70;;
29934;SDS011;19905;53.370;-6.314;2022-11-21T11:00:24;5.68;;;1.27;;
29934;SDS011;19905;53.370;-6.314;2022-11-21T11:02:59;8.48;;;1.58;;
29934;SDS011;19905;53.370;-6.314;2022-11-21T11:05:31;7.07;;;2.05;;
29934;SDS011;19905;53.370;-6.314;2022-11-21T11:08:08;9.30;;;1.75;;
29934;SDS011;19905;53.370;-6.314;2022-11-21T11:10:38;9.77;;;2.25;;
29934;SDS011;19905;53.370;-6.314;2022-11-21T11:13:11;13.45;;;2.50;;
29934;SDS011;19905;53.370;-6.314;2022-11-21T11:16:17;7.50;;;2.35;;
29934;SDS011;19905;53.370;-6.314;2022-11-21T11:18:54;9.98;;;2.20;;
29934;SDS011;19905;53.370;-6.314;2022-11-21T11:21:28;9.30;;;2.05;;
29934;SDS011;19905;53.370;-6.314;2022-11-21T11:24:19;10.23;;;2.22;;
29934;SDS011;19905;53.370;-6.314;2022-11-21T11:26:55;10.10;;;2.47;;
29934;SDS011;19905;53.370;-6.314;2022-11-21T11:29:27;9.75;;;3.70;;
29934;SDS011;19905;53.370;-6.314;2022-11-21T11:31:59;6.82;;;2.80;;
29934;SDS011;19905;53.370;-6.314;2022-11-21T11:34:35;9.02;;;3.50;;
29934;SDS011;19905;53.370;-6.314;2022-11-21T11:37:18;5.70;;;2.17;;
29934;SDS011;19905;53.370;-6.314;2022-11-21T11:39:58;9.90;;;2.20;;
29934;SDS011;19905;53.370;-6.314;2022-11-21T11:42:44;12.07;;;2.92;;
29934;SDS011;19905;53.370;-6.314;2022-11-21T11:49:08;7.55;;;2.10;;
29934;SDS011;19905;53.370;-6.314;2022-11-21T11:51:47;14.18;;;4.60;;
29934;SDS011;19905;53.370;-6.314;2022-11-21T11:54:22;10.80;;;3.35;;
29934;SDS011;19905;53.370;-6.314;2022-11-21T11:56:58;8.90;;;1.90;;
29934;SDS011;19905;53.370;-6.314;2022-11-21T11:59:30;7.65;;;2.08;;
29934;SDS011;19905;53.370;-6.314;2022-11-21T12:02:05;9.57;;;1.67;;
29934;SDS011;19905;53.370;-6.314;2022-11-21T12:04:45;6.93;;;1.65;;
29934;SDS011;19905;53.370;-6.314;2022-11-21T12:07:21;9.77;;;1.77;;
29934;SDS011;19905;53.370;-6.314;2022-11-21T12:10:13;5.30;;;1.45;;
29934;SDS011;19905;53.370;-6.314;2022-11-21T12:12:51;9.40;;;1.73;;
29934;SDS011;19905;53.370;-6.314;2022-11-21T12:15:24;11.45;;;2.00;;
29934;SDS011;19905;53.370;-6.314;2022-11-21T12:18:19;7.07;;;1.80;;
29934;SDS011;19905;53.370;-6.314;2022-11-21T12:20:55;7.28;;;2.03;;
29934;SDS011;19905;53.370;-6.314;2022-11-21T12:23:30;10.35;;;1.70;;
29934;SDS011;19905;53.370;-6.314;2022-11-21T12:26:05;9.82;;;1.70;;
29934;SDS011;19905;53.370;-6.314;2022-11-21T12:28:54;8.40;;;1.58;;
29934;SDS011;19905;53.370;-6.314;2022-11-21T12:31:36;9.38;;;2.17;;
29934;SDS011;19905;53.370;-6.314;2022-11-21T12:34:18;8.88;;;2.15;;
29934;SDS011;19905;53.370;-6.314;2022-11-21T12:37:03;14.73;;;2.30;;
29934;SDS011;19905;53.370;-6.314;2022-11-21T12:39:48;12.77;;;1.85;;
29934;SDS011;19905;53.370;-6.314;2022-11-21T12:42:31;8.98;;;1.80;;
29934;SDS011;19905;53.370;-6.314;2022-11-21T12:45:23;8.32;;;2.00;;
29934;SDS011;19905;53.370;-6.314;2022-11-21T12:48:01;9.18;;;1.85;;
29934;SDS011;19905;53.370;-6.314;2022-11-21T12:51:07;11.10;;;2.38;;
29934;SDS011;19905;53.370;-6.314;2022-11-21T12:54:10;11.68;;;2.10;;
29934;SDS011;19905;53.370;-6.314;2022-11-21T12:57:02;12.07;;;2.38;;
29934;SDS011;19905;53.370;-6.314;2022-11-21T12:59:40;13.07;;;3.00;;
29934;SDS011;19905;53.370;-6.314;2022-11-21T13:02:20;17.05;;;3.00;;
29934;SDS011;19905;53.370;-6.314;2022-11-21T13:04:57;17.63;;;2.75;;
29934;SDS011;19905;53.370;-6.314;2022-11-21T13:07:28;12.63;;;3.03;;
29934;SDS011;19905;53.370;-6.314;2022-11-21T13:09:59;17.35;;;3.05;;
29934;SDS011;19905;53.370;-6.314;2022-11-21T13:12:33;14.88;;;3.22;;
29934;SDS011;19905;53.370;-6.314;2022-11-21T13:15:16;16.73;;;3.08;;
29934;SDS011;19905;53.370;-6.314;2022-11-21T13:17:52;18.92;;;2.90;;
29934;SDS011;19905;53.370;-6.314;2022-11-21T13:20:25;16.85;;;3.72;;
29934;SDS011;19905;53.370;-6.314;2022-11-21T13:22:58;20.58;;;4.45;;
29934;SDS011;19905;53.370;-6.314;2022-11-21T13:25:36;15.85;;;3.03;;
29934;SDS011;19905;53.370;-6.314;2022-11-21T13:28:32;16.65;;;4.00;;
29934;SDS011;19905;53.370;-6.314;2022-11-21T13:31:24;19.60;;;5.03;;
29934;SDS011;19905;53.370;-6.314;2022-11-21T13:33:56;21.85;;;6.57;;
29934;SDS011;19905;53.370;-6.314;2022-11-21T13:36:35;21.10;;;6.47;;
29934;SDS011;19905;53.370;-6.314;2022-11-21T13:39:23;18.35;;;5.07;;
29934;SDS011;19905;53.370;-6.314;2022-11-21T13:42:02;9.65;;;2.42;;
29934;SDS011;19905;53.370;-6.314;2022-11-21T13:44:50;12.48;;;3.53;;
29934;SDS011;19905;53.370;-6.314;2022-11-21T13:47:30;11.40;;;3.47;;
29934;SDS011;19905;53.370;-6.314;2022-11-21T13:50:30;11.50;;;3.30;;
29934;SDS011;19905;53.370;-6.314;2022-11-21T13:53:36;14.15;;;2.72;;
29934;SDS011;19905;53.370;-6.314;2022-11-21T13:56:26;12.02;;;3.20;;
29934;SDS011;19905;53.370;-6.314;2022-11-21T13:59:09;10.60;;;2.47;;
29934;SDS011;19905;53.370;-6.314;2022-11-21T14:04:59;13.10;;;3.20;;
29934;SDS011;19905;53.370;-6.314;2022-11-21T14:07:44;11.55;;;2.17;;
29934;SDS011;19905;53.370;-6.314;2022-11-21T14:10:17;13.82;;;2.22;;
29934;SDS011;19905;53.370;-6.314;2022-11-21T14:12:59;13.40;;;2.30;;
29934;SDS011;19905;53.370;-6.314;2022-11-21T14:15:31;6.53;;;1.88;;
29934;SDS011;19905;53.370;-6.314;2022-11-21T14:18:19;10.35;;;1.80;;
29934;SDS011;19905;53.370;-6.314;2022-11-21T14:20:52;7.93;;;2.00;;
29934;SDS011;19905;53.370;-6.314;2022-11-21T14:23:25;13.65;;;2.03;;
29934;SDS011;19905;53.370;-6.314;2022-11-21T14:25:58;10.93;;;1.98;;
29934;SDS011;19905;53.370;-6.314;2022-11-21T14:28:32;11.77;;;2.28;;
29934;SDS011;19905;53.370;-6.314;2022-11-21T14:31:03;10.05;;;2.88;;
29934;SDS011;19905;53.370;-6.314;2022-11-21T14:33:33;7.97;;;2.15;;
29934;SDS011;19905;53.370;-6.314;2022-11-21T14:36:05;11.63;;;2.38;;
29934;SDS011;19905;53.370;-6.314;2022-11-21T14:38:40;7.68;;;2.47;;
29934;SDS011;19905;53.370;-6.314;2022-11-21T14:44:02;9.10;;;2.17;;
29934;SDS011;19905;53.370;-6.314;2022-11-21T14:46:43;8.57;;;2.28;;
29934;SDS011;19905;53.370;-6.314;2022-11-21T14:49:20;11.55;;;2.83;;
29934;SDS011;19905;53.370;-6.314;2022-11-21T14:51:53;9.52;;;2.00;;
29934;SDS011;19905;53.370;-6.314;2022-11-21T14:54:31;16.33;;;2.45;;
29934;SDS011;19905;53.370;-6.314;2022-11-21T14:57:26;12.18;;;2.38;;
29934;SDS011;19905;53.370;-6.314;2022-11-21T14:59:58;10.13;;;2.83;;
29934;SDS011;19905;53.370;-6.314;2022-11-21T15:02:28;17.08;;;2.65;;
29934;SDS011;19905;53.370;-6.314;2022-11-21T15:05:00;13.40;;;2.35;;
29934;SDS011;19905;53.370;-6.314;2022-11-21T15:07:34;9.95;;;2.08;;
29934;SDS011;19905;53.370;-6.314;2022-11-21T15:10:12;13.35;;;2.45;;
29934;SDS011;19905;53.370;-6.314;2022-11-21T15:12:59;10.80;;;2.47;;
29934;SDS011;19905;53.370;-6.314;2022-11-21T15:15:31;12.80;;;2.60;;